Time;durP1;ratioP1;P1;durP2;ratioP2;P2;SDS_P1;SDS_P2;PMS_P1;PMS_P2;Temp;Humidity;BMP_temperature;BMP_pressure;BME280_temperature;BME280_humidity;BME280_pressure;Samples;Min_cycle;Max_cycle;Signal;HPM_P1;HPM_P2
2023/12/02 00:00:09;;;;;;;34.50;33.30;;;21.10;45.40;;;;;;4993361;28;20517;-67
2023/12/02 00:02:36;;;;;;;35.93;34.53;;;21.10;45.40;;;;;;5001526;28;20930;-67
2023/12/02 00:05:04;;;;;;;35.70;34.50;;;21.10;45.30;;;;;;5004005;28;20468;-67
2023/12/02 00:07:30;;;;;;;35.50;34.30;;;21.10;45.40;;;;;;5004558;28;20477;-67
2023/12/02 00:09:57;;;;;;;34.40;33.03;;;21.00;45.30;;;;;;5002387;28;20485;-67
2023/12/02 00:12:24;;;;;;;35.17;33.87;;;21.00;45.40;;;;;;5001213;28;20515;-67
2023/12/02 00:14:52;;;;;;;35.93;34.60;;;21.00;45.40;;;;;;5002181;28;20470;-67
2023/12/02 00:17:19;;;;;;;34.73;33.53;;;21.00;45.40;;;;;;5004328;28;20604;-67
2023/12/02 00:19:46;;;;;;;36.37;35.07;;;21.00;45.40;;;;;;5003804;28;20497;-67
2023/12/02 00:22:14;;;;;;;45.80;44.17;;;21.00;45.50;;;;;;4994359;28;20470;-67
2023/12/02 00:24:41;;;;;;;35.17;33.87;;;21.00;45.30;;;;;;5003602;28;20473;-67
2023/12/02 00:27:08;;;;;;;46.00;44.40;;;21.00;45.40;;;;;;4992759;28;20474;-67
2023/12/02 00:29:35;;;;;;;36.47;35.17;;;21.00;45.40;;;;;;5000921;28;20475;-67
2023/12/02 00:32:03;;;;;;;31.55;30.45;;;21.00;45.40;;;;;;5002088;28;20490;-67
2023/12/02 00:34:30;;;;;;;35.03;33.83;;;20.90;45.30;;;;;;5004258;28;20238;-67
2023/12/02 00:36:57;;;;;;;34.50;33.40;;;21.00;45.30;;;;;;5002096;28;20509;-67
2023/12/02 00:39:24;;;;;;;35.57;34.30;;;21.10;45.20;;;;;;5000699;28;20498;-67
2023/12/02 00:41:50;;;;;;;35.70;34.40;;;21.10;45.20;;;;;;5001575;28;20475;-67
2023/12/02 00:44:17;;;;;;;35.10;33.80;;;21.10;45.20;;;;;;5004022;28;20470;-67
2023/12/02 00:46:44;;;;;;;36.60;35.30;;;21.00;45.10;;;;;;5003783;28;20480;-67
2023/12/02 00:49:12;;;;;;;35.03;33.83;;;21.00;45.20;;;;;;4990980;28;20490;-67
2023/12/02 00:51:39;;;;;;;35.90;34.50;;;21.00;45.20;;;;;;5003919;28;20481;-67
2023/12/02 00:54:06;;;;;;;34.80;33.60;;;21.00;45.30;;;;;;5000802;28;20478;-67
2023/12/02 00:56:33;;;;;;;34.80;33.60;;;20.90;45.20;;;;;;5000376;28;20518;-67
2023/12/02 00:59:00;;;;;;;36.07;34.87;;;20.90;45.30;;;;;;5002275;28;20490;-67
2023/12/02 01:01:27;;;;;;;36.20;34.67;;;20.90;45.30;;;;;;5003791;28;20477;-67
2023/12/02 01:03:53;;;;;;;35.20;34.00;;;20.90;45.30;;;;;;5002427;28;20477;-67
2023/12/02 01:06:22;;;;;;;35.50;34.30;;;20.90;45.30;;;;;;5000363;28;20474;-67
2023/12/02 01:08:49;;;;;;;36.37;35.17;;;20.90;45.30;;;;;;5000839;28;21001;-67
2023/12/02 01:11:15;;;;;;;35.50;34.10;;;20.90;45.40;;;;;;5003697;28;20474;-67
2023/12/02 01:13:42;;;;;;;35.47;34.27;;;20.90;45.40;;;;;;5003643;28;20481;-67
2023/12/02 01:16:10;;;;;;;34.80;33.70;;;20.90;45.40;;;;;;5000257;28;20463;-67
2023/12/02 01:18:37;;;;;;;35.83;34.63;;;20.90;45.50;;;;;;5000255;28;20509;-67
2023/12/02 01:21:04;;;;;;;35.43;34.23;;;20.90;45.50;;;;;;4997080;28;20475;-67
2023/12/02 01:23:32;;;;;;;36.83;35.53;;;20.80;45.30;;;;;;5000141;28;20453;-67
2023/12/02 01:26:00;;;;;;;34.90;33.70;;;20.80;45.30;;;;;;5002023;28;20482;-67
2023/12/02 01:28:26;;;;;;;35.57;34.37;;;20.80;45.40;;;;;;5003348;28;20498;-67
2023/12/02 01:30:53;;;;;;;35.50;34.30;;;20.80;45.40;;;;;;5002305;28;20473;-67
2023/12/02 01:33:20;;;;;;;35.73;34.43;;;20.80;45.30;;;;;;5000082;28;20478;-67
2023/12/02 01:35:47;;;;;;;35.40;34.20;;;20.80;45.30;;;;;;5001313;28;20453;-67
2023/12/02 01:38:14;;;;;;;35.63;34.40;;;20.80;45.30;;;;;;5007220;28;20509;-67
2023/12/02 01:40:43;;;;;;;35.63;34.40;;;20.80;45.30;;;;;;5007388;28;20484;-67
2023/12/02 01:43:21;;;;;;;35.23;34.00;;;20.80;45.30;;;;;;5003887;28;20483;-67
2023/12/02 01:45:48;;;;;;;35.37;34.17;;;20.80;45.30;;;;;;5004149;28;20489;-67
2023/12/02 01:48:15;;;;;;;36.60;35.40;;;20.80;45.30;;;;;;5007154;28;20489;-67
2023/12/02 01:50:42;;;;;;;35.63;34.43;;;20.80;45.30;;;;;;5007248;28;20470;-67
2023/12/02 01:53:10;;;;;;;35.60;34.40;;;20.80;45.30;;;;;;5003946;28;20879;-67
2023/12/02 01:55:36;;;;;;;35.77;34.50;;;20.80;45.40;;;;;;5003809;28;20451;-67
2023/12/02 01:58:05;;;;;;;35.53;34.33;;;20.80;45.30;;;;;;5005749;28;20498;-67
2023/12/02 02:00:32;;;;;;;40.47;39.10;;;20.80;45.30;;;;;;5007155;28;21138;-67
2023/12/02 02:02:59;;;;;;;35.57;34.37;;;20.80;45.30;;;;;;5005260;28;20869;-67
2023/12/02 02:05:26;;;;;;;35.40;34.20;;;20.70;45.30;;;;;;5003575;28;20466;-66
2023/12/02 02:07:53;;;;;;;35.17;33.70;;;20.70;45.40;;;;;;5004136;28;20443;-66
2023/12/02 02:10:21;;;;;;;35.60;34.30;;;20.70;45.30;;;;;;5006857;28;20529;-67
2023/12/02 02:12:48;;;;;;;35.23;34.00;;;20.70;45.30;;;;;;5006481;28;20454;-67
2023/12/02 02:15:16;;;;;;;35.27;34.07;;;20.70;45.30;;;;;;5003407;28;20885;-67
2023/12/02 02:17:43;;;;;;;35.43;34.23;;;20.70;45.20;;;;;;5003336;28;20583;-67
2023/12/02 02:20:11;;;;;;;35.37;34.13;;;20.70;45.20;;;;;;5006323;28;20480;-67
2023/12/02 02:22:39;;;;;;;35.20;34.00;;;20.70;45.20;;;;;;5004563;28;20505;-67
2023/12/02 02:25:06;;;;;;;46.33;44.67;;;20.70;45.30;;;;;;5005693;28;20474;-66
2023/12/02 02:27:33;;;;;;;35.37;34.07;;;20.70;45.20;;;;;;5006528;28;20434;-67
2023/12/02 02:30:00;;;;;;;35.70;34.50;;;20.70;45.20;;;;;;5004591;28;20497;-67
2023/12/02 02:32:27;;;;;;;35.53;34.23;;;20.70;45.20;;;;;;5003061;28;20478;-67
2023/12/02 02:34:54;;;;;;;35.10;33.80;;;20.70;45.30;;;;;;5003849;28;20478;-67
2023/12/02 02:37:21;;;;;;;35.10;33.80;;;20.70;45.20;;;;;;5006249;28;20498;-67
2023/12/02 02:39:49;;;;;;;36.93;35.63;;;20.70;45.20;;;;;;5006261;28;20485;-67
2023/12/02 02:42:16;;;;;;;35.37;34.17;;;20.70;45.20;;;;;;4995208;28;20478;-67
2023/12/02 02:44:43;;;;;;;36.57;35.17;;;20.70;45.20;;;;;;5002851;28;20474;-67
2023/12/02 02:47:10;;;;;;;35.23;34.03;;;20.70;45.20;;;;;;5004956;28;20477;-66
2023/12/02 02:49:37;;;;;;;36.53;35.30;;;20.60;45.00;;;;;;5006036;28;20486;-67
2023/12/02 02:52:04;;;;;;;36.10;34.83;;;20.60;45.00;;;;;;5003842;28;20481;-67
2023/12/02 02:54:31;;;;;;;34.80;33.60;;;20.60;45.00;;;;;;5002607;28;20475;-67
2023/12/02 02:57:00;;;;;;;35.47;34.17;;;20.60;45.10;;;;;;5003686;28;20479;-67
2023/12/02 02:59:27;;;;;;;39.47;38.13;;;20.60;45.10;;;;;;5005714;28;20478;-67
2023/12/02 03:01:53;;;;;;;36.10;34.87;;;20.70;45.20;;;;;;5005007;28;20452;-67
2023/12/02 03:04:20;;;;;;;35.37;34.17;;;20.60;45.10;;;;;;5002455;28;20530;-67
2023/12/02 03:06:47;;;;;;;37.50;36.20;;;20.60;45.00;;;;;;5002550;28;21177;-67
2023/12/02 03:09:14;;;;;;;37.20;35.90;;;20.60;45.00;;;;;;4994260;28;20990;-67
2023/12/02 03:11:41;;;;;;;36.73;35.43;;;20.60;45.00;;;;;;5002426;28;20966;-67
2023/12/02 03:14:09;;;;;;;49.37;47.57;;;20.60;45.10;;;;;;5005010;28;20440;-67
2023/12/02 03:16:38;;;;;;;57.17;55.20;;;20.60;45.00;;;;;;5005830;28;20981;-67
2023/12/02 03:19:05;;;;;;;65.80;63.60;;;20.60;45.10;;;;;;5001492;28;20559;-67
2023/12/02 03:21:32;;;;;;;34.73;33.53;;;20.60;45.00;;;;;;5004420;28;20478;-67
2023/12/02 03:23:59;;;;;;;35.00;33.70;;;20.60;45.00;;;;;;5004069;28;20979;-67
2023/12/02 03:26:26;;;;;;;35.63;34.43;;;20.70;45.00;;;;;;5001992;28;20959;-67
2023/12/02 03:28:53;;;;;;;35.87;34.57;;;20.70;44.90;;;;;;5002192;28;20924;-67
2023/12/02 03:31:22;;;;;;;35.50;34.30;;;20.70;44.90;;;;;;5005347;28;20477;-66
2023/12/02 03:33:49;;;;;;;34.50;33.30;;;20.70;44.90;;;;;;5005444;28;20497;-67
2023/12/02 03:36:15;;;;;;;34.40;33.20;;;20.70;44.90;;;;;;5005288;28;20470;-67
2023/12/02 03:38:42;;;;;;;34.80;33.60;;;20.70;44.90;;;;;;5005038;28;20505;-67
2023/12/02 03:41:09;;;;;;;35.97;34.70;;;20.70;44.90;;;;;;5002409;28;20485;-67
2023/12/02 03:43:36;;;;;;;35.80;34.60;;;20.70;44.90;;;;;;5001838;28;20912;-67
2023/12/02 03:46:03;;;;;;;35.67;34.30;;;20.60;44.80;;;;;;5003325;28;20493;-67
2023/12/02 03:48:31;;;;;;;36.60;35.30;;;20.70;45.00;;;;;;5004933;28;20500;-67
2023/12/02 03:50:59;;;;;;;36.20;35.00;;;20.70;45.00;;;;;;5003693;28;20480;-67
2023/12/02 03:53:30;;;;;;;36.03;34.77;;;20.60;44.90;;;;;;5001795;28;20479;-67
2023/12/02 03:55:57;;;;;;;35.27;34.07;;;20.70;45.00;;;;;;5002142;28;20542;-67
2023/12/02 03:58:24;;;;;;;35.33;34.13;;;20.60;44.90;;;;;;5004365;28;20517;-67
2023/12/02 04:00:51;;;;;;;35.30;33.93;;;20.70;45.00;;;;;;5003990;28;20545;-67
2023/12/02 04:03:18;;;;;;;35.07;33.87;;;20.60;44.90;;;;;;5001524;28;20859;-67
2023/12/02 04:05:46;;;;;;;35.73;34.53;;;20.60;44.90;;;;;;5001362;28;20915;-67
2023/12/02 04:08:13;;;;;;;34.70;33.50;;;20.60;44.90;;;;;;5004047;28;20489;-67
2023/12/02 04:10:40;;;;;;;35.10;33.80;;;20.60;45.00;;;;;;5004652;28;20817;-67
2023/12/02 04:13:07;;;;;;;35.70;34.50;;;20.60;45.00;;;;;;5002450;28;20478;-67
2023/12/02 04:15:35;;;;;;;36.67;35.37;;;20.60;45.00;;;;;;4993885;28;20477;-67
2023/12/02 04:18:02;;;;;;;36.63;35.37;;;20.60;45.00;;;;;;5002890;28;20544;-67
2023/12/02 04:20:29;;;;;;;35.70;34.50;;;20.60;45.00;;;;;;5000215;28;20446;-67
2023/12/02 04:22:57;;;;;;;37.70;36.40;;;20.60;44.90;;;;;;4998127;28;20438;-67
2023/12/02 04:25:24;;;;;;;36.10;34.80;;;20.60;44.90;;;;;;5001030;28;20443;-67
2023/12/02 04:27:51;;;;;;;36.63;35.37;;;20.60;44.90;;;;;;5000916;28;20509;-67
2023/12/02 04:30:18;;;;;;;35.87;34.67;;;20.60;44.90;;;;;;4993054;28;20482;-67
2023/12/02 04:32:45;;;;;;;35.50;34.30;;;20.60;44.90;;;;;;5000795;28;20445;-67
2023/12/02 04:35:13;;;;;;;36.10;34.80;;;20.60;44.90;;;;;;5003390;28;20483;-67
2023/12/02 04:37:39;;;;;;;35.73;34.33;;;20.60;44.90;;;;;;5003925;28;20564;-67
2023/12/02 04:40:11;;;;;;;35.90;34.60;;;20.60;44.90;;;;;;5002135;28;20504;-67
2023/12/02 04:42:38;;;;;;;36.10;34.83;;;20.60;44.90;;;;;;5000759;28;20451;-67
2023/12/02 04:45:07;;;;;;;35.83;34.63;;;20.60;44.80;;;;;;5002260;28;20453;-67
2023/12/02 04:47:34;;;;;;;35.10;33.90;;;20.60;44.90;;;;;;5003932;28;20445;-67
2023/12/02 04:50:01;;;;;;;35.03;33.83;;;20.60;44.90;;;;;;5002780;28;20466;-66
2023/12/02 04:52:28;;;;;;;36.27;34.77;;;20.60;44.90;;;;;;5000517;28;20451;-67
2023/12/02 04:54:55;;;;;;;36.03;34.53;;;20.60;45.00;;;;;;5000654;28;20478;-67
2023/12/02 04:57:23;;;;;;;38.13;36.83;;;20.50;44.90;;;;;;5003725;28;20466;-67
2023/12/02 04:59:50;;;;;;;32.67;31.48;;;20.60;44.90;;;;;;4994845;28;20979;-66
2023/12/02 05:02:18;;;;;;;36.43;35.10;;;20.50;44.90;;;;;;5003567;28;20230;-66
2023/12/02 05:04:46;;;;;;;36.33;35.03;;;20.50;44.80;;;;;;5003865;28;20454;-65
2023/12/02 05:07:13;;;;;;;36.07;34.77;;;20.60;44.80;;;;;;5001096;28;20446;-66
2023/12/02 05:09:39;;;;;;;35.53;34.23;;;20.60;44.70;;;;;;5000346;28;21237;-66
2023/12/02 05:12:07;;;;;;;36.40;35.00;;;20.60;44.70;;;;;;5001867;28;20883;-66
2023/12/02 05:14:36;;;;;;;35.00;33.80;;;20.60;44.70;;;;;;5003593;28;20517;-66
2023/12/02 05:17:03;;;;;;;35.43;34.13;;;20.60;44.60;;;;;;5002343;28;20577;-66
2023/12/02 05:19:30;;;;;;;35.93;34.53;;;20.60;44.60;;;;;;5000120;28;20882;-66
2023/12/02 05:21:57;;;;;;;36.20;34.90;;;20.60;44.60;;;;;;5003697;28;20490;-66
2023/12/02 05:24:26;;;;;;;35.97;34.77;;;20.60;44.60;;;;;;5000209;28;20552;-68
2023/12/02 05:26:53;;;;;;;36.50;35.20;;;20.60;44.60;;;;;;4999780;28;20470;-69
2023/12/02 05:29:20;;;;;;;36.43;35.13;;;20.60;44.90;;;;;;4992181;28;20481;-67
2023/12/02 05:31:49;;;;;;;36.63;35.33;;;20.60;44.90;;;;;;5000141;28;20447;-68
2023/12/02 05:34:16;;;;;;;35.23;34.00;;;20.60;44.80;;;;;;5000066;28;20445;-68
2023/12/02 05:36:46;;;;;;;36.33;35.13;;;20.70;45.20;;;;;;5000200;28;20470;-67
2023/12/02 05:39:13;;;;;;;36.20;34.90;;;20.70;45.50;;;;;;5002310;28;20485;-67
2023/12/02 05:41:41;;;;;;;35.40;34.17;;;20.80;45.70;;;;;;5003204;28;20449;-67
2023/12/02 05:44:08;;;;;;;35.77;34.37;;;20.80;45.80;;;;;;5001588;28;20517;-67
2023/12/02 05:46:35;;;;;;;35.37;34.10;;;20.80;45.80;;;;;;5000055;28;20470;-67
2023/12/02 05:49:03;;;;;;;34.73;33.53;;;20.90;45.90;;;;;;5000631;28;20502;-66
2023/12/02 05:51:30;;;;;;;35.30;34.10;;;20.90;45.80;;;;;;5003322;28;20601;-68
2023/12/02 05:53:58;;;;;;;35.57;34.37;;;21.00;46.00;;;;;;5003003;28;20473;-67
2023/12/02 05:56:25;;;;;;;35.60;34.40;;;21.00;46.00;;;;;;4999920;28;20447;-68
2023/12/02 05:58:53;;;;;;;36.60;35.23;;;21.10;46.00;;;;;;4999502;28;20529;-67
2023/12/02 06:01:20;;;;;;;46.13;44.53;;;21.10;46.00;;;;;;5003061;28;20448;-67
2023/12/02 06:03:48;;;;;;;35.33;34.13;;;21.20;46.00;;;;;;5003299;28;20452;-67
2023/12/02 06:06:19;;;;;;;35.20;34.00;;;21.20;46.00;;;;;;5000418;28;20449;-66
2023/12/02 06:08:46;;;;;;;35.43;34.23;;;21.20;46.00;;;;;;4999576;28;20538;-67
2023/12/02 06:11:13;;;;;;;34.93;33.73;;;21.20;46.00;;;;;;5002042;28;20965;-67
2023/12/02 06:13:39;;;;;;;36.83;35.50;;;21.30;46.00;;;;;;5003296;28;20596;-67
2023/12/02 06:16:07;;;;;;;36.10;34.80;;;21.30;46.00;;;;;;5001645;28;20479;-67
2023/12/02 06:18:34;;;;;;;36.63;34.77;;;21.30;46.00;;;;;;4999549;28;20518;-66
2023/12/02 06:21:01;;;;;;;36.87;35.67;;;21.30;45.90;;;;;;4995186;28;20530;-66
2023/12/02 06:23:29;;;;;;;35.67;34.47;;;21.40;46.00;;;;;;5001681;28;20454;-66
2023/12/02 06:25:56;;;;;;;36.70;35.47;;;21.40;46.00;;;;;;5003212;28;20951;-65
2023/12/02 06:28:23;;;;;;;37.07;35.67;;;21.40;46.00;;;;;;4990607;28;20516;-64
2023/12/02 06:30:50;;;;;;;36.20;34.90;;;21.40;45.90;;;;;;5006641;28;20470;-65
2023/12/02 06:33:17;;;;;;;35.47;34.27;;;21.50;45.90;;;;;;5003568;28;20501;-66
2023/12/02 06:35:44;;;;;;;35.40;34.13;;;21.40;45.90;;;;;;5002980;28;20494;-66
2023/12/02 06:38:10;;;;;;;34.93;33.73;;;21.50;45.90;;;;;;5004444;28;20514;-65
2023/12/02 06:40:39;;;;;;;35.13;33.93;;;21.50;45.90;;;;;;5006455;28;20485;-66
2023/12/02 06:43:06;;;;;;;35.50;34.30;;;21.50;45.90;;;;;;5005099;28;20473;-65
2023/12/02 06:45:34;;;;;;;35.53;34.33;;;21.50;45.90;;;;;;5002928;28;20443;-66
2023/12/02 06:48:01;;;;;;;35.17;33.97;;;21.50;45.90;;;;;;5002969;28;20985;-66
2023/12/02 06:50:28;;;;;;;34.63;33.43;;;21.50;45.90;;;;;;5006186;28;20962;-66
2023/12/02 06:52:54;;;;;;;34.63;33.33;;;21.60;45.90;;;;;;5006015;28;20470;-68
2023/12/02 06:55:22;;;;;;;35.30;34.00;;;21.60;45.90;;;;;;5002600;28;20841;-69
2023/12/02 06:57:50;;;;;;;35.03;33.80;;;21.60;45.50;;;;;;5002549;28;20538;-68
2023/12/02 07:00:19;;;;;;;38.70;37.37;;;21.60;46.00;;;;;;5005064;28;20566;-68
2023/12/02 07:02:46;;;;;;;45.43;43.83;;;21.60;46.00;;;;;;5005854;28;20456;-68
2023/12/02 07:05:13;;;;;;;35.27;34.07;;;21.60;45.90;;;;;;5003625;28;20478;-68
2023/12/02 07:07:40;;;;;;;35.53;34.23;;;21.70;45.90;;;;;;5002487;28;20878;-70
2023/12/02 07:10:09;;;;;;;38.60;37.10;;;21.70;45.90;;;;;;5003491;28;20501;-71
2023/12/02 07:12:36;;;;;;;35.87;34.57;;;21.70;44.60;;;;;;5005843;28;20816;-71
2023/12/02 07:15:06;;;;;;;40.33;38.90;;;21.60;42.50;;;;;;5004935;28;20474;-67
2023/12/02 07:17:33;;;;;;;36.13;34.83;;;21.50;41.20;;;;;;5002395;28;20865;-69
2023/12/02 07:20:00;;;;;;;37.07;35.50;;;21.50;41.80;;;;;;5002031;28;20521;-69
2023/12/02 07:22:27;;;;;;;37.20;35.90;;;21.50;42.50;;;;;;5004984;28;20489;-69
2023/12/02 07:24:54;;;;;;;36.37;35.07;;;21.50;43.20;;;;;;5002159;28;21131;-70
2023/12/02 07:27:21;;;;;;;35.70;34.40;;;21.40;43.20;;;;;;5005291;28;20597;-71
2023/12/02 07:29:48;;;;;;;35.50;34.20;;;21.50;43.10;;;;;;5005238;28;20493;-71
2023/12/02 07:32:16;;;;;;;35.97;34.57;;;21.50;43.40;;;;;;5003126;28;20484;-71
2023/12/02 07:34:43;;;;;;;36.00;34.70;;;21.50;44.00;;;;;;5001659;28;20966;-71
2023/12/02 07:37:10;;;;;;;35.37;34.07;;;21.50;43.60;;;;;;5001770;28;20436;-71
2023/12/02 07:40:41;;;;;;;35.03;33.63;;;21.40;43.70;;;;;;5119758;22;21074;-65
2023/12/02 07:43:08;;;;;;;34.77;33.37;;;21.50;43.90;;;;;;5089267;28;20478;-66
2023/12/02 07:45:36;;;;;;;35.30;34.00;;;21.50;43.90;;;;;;5089313;28;20533;-66
2023/12/02 07:48:02;;;;;;;34.83;33.63;;;21.40;43.90;;;;;;5089031;28;20450;-66
2023/12/02 07:50:29;;;;;;;34.63;33.40;;;21.50;44.00;;;;;;5088724;28;20486;-66
2023/12/02 07:52:56;;;;;;;34.67;33.40;;;21.40;44.00;;;;;;5088920;28;20478;-66
2023/12/02 07:55:23;;;;;;;34.83;33.63;;;21.40;44.00;;;;;;5088789;28;20474;-66
2023/12/02 07:57:52;;;;;;;34.93;33.63;;;21.40;44.10;;;;;;5089190;28;20467;-66
2023/12/02 08:00:19;;;;;;;35.00;33.73;;;21.40;44.10;;;;;;5088756;28;20551;-65
2023/12/02 08:02:46;;;;;;;35.00;33.70;;;21.40;44.30;;;;;;5088614;28;20866;-66
2023/12/02 08:05:13;;;;;;;34.97;33.60;;;21.40;44.20;;;;;;5088399;28;20493;-65
2023/12/02 08:07:39;;;;;;;34.50;33.27;;;21.40;44.20;;;;;;5088730;28;20875;-66
2023/12/02 08:10:07;;;;;;;35.23;34.03;;;21.30;44.10;;;;;;5088393;28;20977;-65
2023/12/02 08:12:34;;;;;;;35.17;33.87;;;21.30;44.10;;;;;;5088534;28;20454;-66
2023/12/02 08:15:02;;;;;;;35.67;34.37;;;21.30;44.20;;;;;;5088358;28;20485;-66
2023/12/02 08:17:29;;;;;;;35.40;34.10;;;21.30;44.20;;;;;;5088541;28;20447;-66
2023/12/02 08:19:56;;;;;;;34.80;33.50;;;21.30;44.30;;;;;;5087605;28;20517;-70
2023/12/02 08:22:24;;;;;;;34.60;33.20;;;21.30;44.20;;;;;;5084053;28;20470;-65
2023/12/02 08:24:51;;;;;;;34.47;33.27;;;21.20;43.70;;;;;;5088341;28;20496;-65
2023/12/02 08:27:18;;;;;;;34.23;33.03;;;21.20;43.70;;;;;;5088277;28;20469;-67
2023/12/02 08:29:45;;;;;;;34.00;32.80;;;21.20;44.00;;;;;;5087543;28;21013;-69
2023/12/02 08:32:13;;;;;;;35.17;33.87;;;21.20;44.00;;;;;;5088604;28;20512;-68
2023/12/02 08:34:40;;;;;;;34.60;33.40;;;21.20;44.10;;;;;;5088204;28;20470;-68
2023/12/02 08:37:07;;;;;;;34.40;33.20;;;21.20;44.20;;;;;;5088075;28;20489;-68
2023/12/02 08:39:34;;;;;;;34.63;33.40;;;21.30;44.60;;;;;;5087583;28;20580;-67
2023/12/02 08:42:01;;;;;;;34.20;32.97;;;21.30;44.40;;;;;;5088286;28;20477;-69
2023/12/02 08:44:28;;;;;;;34.87;33.60;;;21.30;44.50;;;;;;5080495;28;20446;-69
2023/12/02 08:47:00;;;;;;;34.97;33.60;;;21.30;44.40;;;;;;5087875;28;20475;-70
2023/12/02 08:49:29;;;;;;;36.50;35.10;;;21.30;44.40;;;;;;5087288;28;20454;-66
2023/12/02 08:51:56;;;;;;;34.70;33.40;;;21.30;44.20;;;;;;5075162;28;20477;-71
2023/12/02 08:54:23;;;;;;;34.27;32.97;;;21.30;44.70;;;;;;5074799;28;20463;-68
2023/12/02 08:56:50;;;;;;;34.67;33.47;;;21.30;45.20;;;;;;5074474;28;20470;-71
2023/12/02 08:59:17;;;;;;;35.07;33.77;;;21.30;45.10;;;;;;5074391;28;20510;-69
2023/12/02 09:01:44;;;;;;;33.90;32.70;;;21.30;45.00;;;;;;5073828;28;20442;-68
2023/12/02 09:04:11;;;;;;;34.57;33.27;;;21.30;45.00;;;;;;5073939;28;20471;-65
2023/12/02 09:06:39;;;;;;;34.70;33.50;;;21.30;44.80;;;;;;5074166;28;20863;-65
2023/12/02 09:09:08;;;;;;;34.47;33.27;;;21.40;44.40;;;;;;5073962;28;20467;-64
2023/12/02 09:11:35;;;;;;;34.37;33.17;;;21.40;44.30;;;;;;5073596;28;20442;-64
2023/12/02 09:14:02;;;;;;;34.60;33.30;;;21.40;44.10;;;;;;5073890;28;20471;-64
2023/12/02 09:16:30;;;;;;;34.17;32.87;;;21.40;44.00;;;;;;5073739;28;20467;-64
2023/12/02 09:18:57;;;;;;;35.63;34.30;;;21.40;43.90;;;;;;5073898;28;20470;-65
2023/12/02 09:21:43;;;;;;;34.90;33.70;;;21.50;43.90;;;;;;5072974;28;20470;-65
2023/12/02 09:24:33;;;;;;;35.30;34.10;;;21.50;44.00;;;;;;5073715;28;20504;-64
2023/12/02 09:27:01;;;;;;;35.40;34.07;;;21.50;43.90;;;;;;5073785;28;20438;-65
2023/12/02 09:29:35;;;;;;;35.17;33.87;;;21.50;43.90;;;;;;5073159;28;20996;-64
2023/12/02 09:32:09;;;;;;;35.37;34.17;;;21.50;43.80;;;;;;5073108;28;20522;-72
2023/12/02 09:34:58;;;;;;;34.50;33.30;;;21.50;43.40;;;;;;5066626;28;20443;-70
2023/12/02 09:37:56;;;;;;;35.40;34.10;;;21.50;43.10;;;;;;5065151;28;20478;-70
2023/12/02 09:40:58;;;;;;;35.40;34.10;;;21.40;43.40;;;;;;5073122;28;20515;-68
2023/12/02 09:43:34;;;;;;;34.73;33.30;;;21.40;43.50;;;;;;5073337;28;20463;-68
2023/12/02 09:46:27;;;;;;;34.70;33.37;;;21.50;43.50;;;;;;5073484;28;20470;-69
2023/12/02 09:49:33;;;;;;;35.00;33.70;;;21.50;43.80;;;;;;5057185;28;20479;-74
2023/12/02 09:52:25;;;;;;;35.50;34.30;;;21.50;44.00;;;;;;5006968;28;20442;-74
2023/12/02 09:55:05;;;;;;;34.90;33.73;;;21.50;43.80;;;;;;5064093;28;20479;-69
2023/12/02 09:57:42;;;;;;;34.67;33.30;;;21.50;43.80;;;;;;5064878;28;20585;-70
2023/12/02 10:00:13;;;;;;;34.10;32.90;;;21.60;43.90;;;;;;5071877;28;20475;-76
2023/12/02 10:02:59;;;;;;;34.37;33.17;;;21.60;43.60;;;;;;5072046;28;20440;-75
2023/12/02 10:05:26;;;;;;;34.27;33.00;;;21.60;43.90;;;;;;5071642;28;20473;-70
2023/12/02 10:08:04;;;;;;;35.37;34.00;;;21.60;44.10;;;;;;5072818;28;20482;-73
2023/12/02 10:10:45;;;;;;;34.90;33.63;;;21.70;44.40;;;;;;5071355;28;20502;-72
2023/12/02 10:13:23;;;;;;;36.40;34.83;;;21.80;44.40;;;;;;5072526;28;20435;-69
2023/12/02 10:15:55;;;;;;;38.60;36.57;;;21.80;44.70;;;;;;5072475;28;20853;-72
2023/12/02 10:18:23;;;;;;;39.90;37.10;;;21.90;44.90;;;;;;5072146;28;20477;-68
2023/12/02 10:20:58;;;;;;;41.10;38.47;;;21.90;45.20;;;;;;5072318;28;20917;-70
2023/12/02 10:23:32;;;;;;;39.60;37.23;;;21.90;45.30;;;;;;5072924;28;20470;-75
2023/12/02 10:26:06;;;;;;;42.10;39.03;;;21.90;44.70;;;;;;5073389;28;20935;-71
2023/12/02 10:28:45;;;;;;;41.03;38.27;;;21.80;44.60;;;;;;5064002;28;20447;-69
2023/12/02 10:31:23;;;;;;;42.93;39.80;;;21.90;45.10;;;;;;5072142;28;20451;-71
2023/12/02 10:34:00;;;;;;;42.83;40.20;;;22.00;45.30;;;;;;5072309;28;20475;-72
2023/12/02 10:36:28;;;;;;;40.87;38.87;;;22.00;45.40;;;;;;5072863;28;20463;-78
2023/12/02 10:39:06;;;;;;;43.73;40.57;;;22.00;45.10;;;;;;5071529;28;20447;-69
2023/12/02 10:41:39;;;;;;;43.40;40.20;;;21.90;44.60;;;;;;5064135;28;20558;-68
2023/12/02 10:44:08;;;;;;;41.87;39.27;;;22.00;45.10;;;;;;5072109;28;20486;-67
2023/12/02 10:46:36;;;;;;;41.63;39.13;;;22.00;45.20;;;;;;5071871;28;20478;-68
2023/12/02 10:49:04;;;;;;;41.40;38.80;;;22.10;45.30;;;;;;5070557;28;20447;-70
2023/12/02 10:51:36;;;;;;;39.60;37.33;;;22.00;44.70;;;;;;5069321;28;20432;-70
2023/12/02 10:54:06;;;;;;;41.80;39.07;;;21.90;43.90;;;;;;5072068;28;20507;-71
2023/12/02 10:56:37;;;;;;;35.35;33.10;;;21.90;42.90;;;;;;5062651;28;20457;-72
2023/12/02 10:59:07;;;;;;;39.60;36.50;;;21.80;43.10;;;;;;5071970;28;20236;-69
2023/12/02 11:01:40;;;;;;;38.80;35.83;;;21.90;43.40;;;;;;5072109;28;20480;-68
2023/12/02 11:04:19;;;;;;;33.25;31.45;;;21.90;43.60;;;;;;5070826;28;20461;-70
2023/12/02 11:06:51;;;;;;;37.57;35.67;;;21.90;44.00;;;;;;5065372;28;20679;-68
2023/12/02 11:09:27;;;;;;;37.47;35.40;;;22.00;44.10;;;;;;5071244;28;20443;-70
2023/12/02 11:12:04;;;;;;;37.77;35.43;;;22.00;43.90;;;;;;5071583;28;20477;-70
2023/12/02 11:14:38;;;;;;;36.53;34.53;;;22.00;43.90;;;;;;5071302;28;20522;-71
2023/12/02 11:17:20;;;;;;;36.90;35.20;;;22.00;43.90;;;;;;5071919;28;20471;-69
2023/12/02 11:20:05;;;;;;;37.77;35.90;;;22.00;43.90;;;;;;5064638;28;20989;-67
2023/12/02 11:22:45;;;;;;;36.27;34.43;;;22.00;44.30;;;;;;5071462;28;20444;-64
2023/12/02 11:25:28;;;;;;;39.37;36.53;;;22.00;44.10;;;;;;5071501;28;20439;-65
2023/12/02 11:28:04;;;;;;;36.07;34.40;;;22.10;44.60;;;;;;5071650;28;20851;-66
2023/12/02 11:30:47;;;;;;;37.50;35.40;;;22.20;44.80;;;;;;5071244;28;20465;-65
2023/12/02 11:33:22;;;;;;;37.63;35.87;;;22.30;45.10;;;;;;5068616;28;20475;-66
2023/12/02 11:35:59;;;;;;;38.70;36.50;;;22.30;45.10;;;;;;5071562;28;20470;-66
2023/12/02 11:38:31;;;;;;;37.10;35.00;;;22.40;45.50;;;;;;5071466;28;20493;-66
2023/12/02 11:41:18;;;;;;;37.40;35.43;;;22.40;46.20;;;;;;5070823;28;20478;-68
2023/12/02 11:43:58;;;;;;;36.70;34.30;;;22.40;47.00;;;;;;5064858;28;20482;-65
2023/12/02 11:46:31;;;;;;;38.20;35.70;;;22.50;48.40;;;;;;5071350;28;20471;-65
2023/12/02 11:49:07;;;;;;;40.77;36.73;;;22.50;49.30;;;;;;5070791;28;20463;-71
2023/12/02 11:51:46;;;;;;;42.23;39.23;;;22.60;49.80;;;;;;5059565;28;20907;-70
2023/12/02 11:54:26;;;;;;;39.97;37.83;;;22.60;51.60;;;;;;5071287;28;20466;-72
2023/12/02 11:57:16;;;;;;;39.23;36.43;;;22.60;52.30;;;;;;5071654;28;20435;-73
2023/12/02 12:00:03;;;;;;;39.40;36.73;;;22.50;52.30;;;;;;5061854;28;20559;-72
2023/12/02 12:02:50;;;;;;;37.10;34.90;;;22.50;52.20;;;;;;5070959;28;20454;-71
2023/12/02 12:05:38;;;;;;;37.77;35.63;;;22.50;52.10;;;;;;5071087;28;20474;-74
2023/12/02 12:08:12;;;;;;;37.40;35.37;;;22.50;52.60;;;;;;5071128;28;20445;-71
2023/12/02 12:10:41;;;;;;;39.67;36.77;;;22.50;52.80;;;;;;5063595;28;20874;-72
2023/12/02 12:13:12;;;;;;;36.60;34.10;;;22.50;51.90;;;;;;5070814;28;20439;-72
2023/12/02 12:15:42;;;;;;;36.40;34.40;;;22.40;51.40;;;;;;5063574;28;20472;-72
2023/12/02 12:18:13;;;;;;;38.57;36.17;;;22.40;51.40;;;;;;5071152;28;20469;-71
2023/12/02 12:20:46;;;;;;;38.57;36.27;;;22.40;50.80;;;;;;5063478;28;20489;-71
2023/12/02 12:23:14;;;;;;;39.93;37.30;;;22.30;51.00;;;;;;5070260;28;20439;-70
2023/12/02 12:25:43;;;;;;;38.37;36.13;;;22.30;51.30;;;;;;5070644;28;20467;-73
2023/12/02 12:28:12;;;;;;;37.83;35.60;;;22.30;50.90;;;;;;5074578;28;20447;-73
2023/12/02 12:30:45;;;;;;;38.70;36.37;;;22.30;50.80;;;;;;5074681;28;20542;-73
2023/12/02 12:33:15;;;;;;;38.40;36.00;;;22.20;50.50;;;;;;5074905;28;20447;-74
2023/12/02 12:35:43;;;;;;;38.63;36.43;;;22.20;50.50;;;;;;5074524;28;20432;-72
2023/12/02 12:38:13;;;;;;;37.37;34.63;;;22.20;50.50;;;;;;5074404;28;20873;-73
2023/12/02 12:40:44;;;;;;;36.80;34.90;;;22.20;50.50;;;;;;5066598;28;20924;-73